sensor_id;sensor_type;location;lat;lon;timestamp;P1;durP1;ratioP1;P2;durP2;ratioP2
20067;SDS011;10194;50.824;7.134;2023-03-14T00:00:03;143.87;;;89.77;;
20067;SDS011;10194;50.824;7.134;2023-03-14T00:02:35;140.27;;;91.23;;
20067;SDS011;10194;50.824;7.134;2023-03-14T00:05:02;140.50;;;87.63;;
20067;SDS011;10194;50.824;7.134;2023-03-14T00:07:31;146.33;;;97.80;;
20067;SDS011;10194;50.824;7.134;2023-03-14T00:10:03;150.67;;;99.63;;
20067;SDS011;10194;50.824;7.134;2023-03-14T00:12:31;142.70;;;96.37;;
20067;SDS011;10194;50.824;7.134;2023-03-14T00:14:57;147.73;;;101.40;;
20067;SDS011;10194;50.824;7.134;2023-03-14T00:17:25;144.43;;;94.13;;
20067;SDS011;10194;50.824;7.134;2023-03-14T00:19:52;146.50;;;97.83;;
20067;SDS011;10194;50.824;7.134;2023-03-14T00:22:19;142.00;;;93.73;;
20067;SDS011;10194;50.824;7.134;2023-03-14T00:24:45;141.67;;;92.03;;
20067;SDS011;10194;50.824;7.134;2023-03-14T00:27:11;142.60;;;92.73;;
20067;SDS011;10194;50.824;7.134;2023-03-14T00:29:38;145.00;;;92.67;;
20067;SDS011;10194;50.824;7.134;2023-03-14T00:32:04;141.23;;;92.03;;
20067;SDS011;10194;50.824;7.134;2023-03-14T00:34:30;143.50;;;95.90;;
20067;SDS011;10194;50.824;7.134;2023-03-14T00:36:58;143.50;;;93.27;;
20067;SDS011;10194;50.824;7.134;2023-03-14T00:39:24;146.83;;;96.17;;
20067;SDS011;10194;50.824;7.134;2023-03-14T00:41:50;144.27;;;94.47;;
20067;SDS011;10194;50.824;7.134;2023-03-14T00:44:15;145.10;;;94.40;;
20067;SDS011;10194;50.824;7.134;2023-03-14T00:46:41;144.83;;;94.00;;
20067;SDS011;10194;50.824;7.134;2023-03-14T00:49:07;143.90;;;93.57;;
20067;SDS011;10194;50.824;7.134;2023-03-14T00:51:33;144.53;;;90.23;;
20067;SDS011;10194;50.824;7.134;2023-03-14T00:53:59;146.80;;;90.20;;
20067;SDS011;10194;50.824;7.134;2023-03-14T00:56:25;143.03;;;89.83;;
20067;SDS011;10194;50.824;7.134;2023-03-14T00:58:54;140.77;;;86.10;;
20067;SDS011;10194;50.824;7.134;2023-03-14T01:01:21;142.10;;;87.13;;
20067;SDS011;10194;50.824;7.134;2023-03-14T01:03:47;143.40;;;84.83;;
20067;SDS011;10194;50.824;7.134;2023-03-14T01:06:17;143.30;;;85.57;;
20067;SDS011;10194;50.824;7.134;2023-03-14T01:08:47;144.30;;;88.83;;
20067;SDS011;10194;50.824;7.134;2023-03-14T01:11:14;145.03;;;89.80;;
20067;SDS011;10194;50.824;7.134;2023-03-14T01:13:43;143.47;;;87.60;;
20067;SDS011;10194;50.824;7.134;2023-03-14T01:16:10;142.77;;;87.37;;
20067;SDS011;10194;50.824;7.134;2023-03-14T01:18:37;145.17;;;88.90;;
20067;SDS011;10194;50.824;7.134;2023-03-14T01:21:13;145.23;;;89.03;;
20067;SDS011;10194;50.824;7.134;2023-03-14T01:23:40;145.93;;;87.57;;
20067;SDS011;10194;50.824;7.134;2023-03-14T01:26:14;149.33;;;85.43;;
20067;SDS011;10194;50.824;7.134;2023-03-14T01:28:46;144.10;;;85.33;;
20067;SDS011;10194;50.824;7.134;2023-03-14T01:31:13;139.93;;;82.13;;
20067;SDS011;10194;50.824;7.134;2023-03-14T01:33:39;140.77;;;83.03;;
20067;SDS011;10194;50.824;7.134;2023-03-14T01:36:06;143.67;;;83.13;;
20067;SDS011;10194;50.824;7.134;2023-03-14T01:38:33;140.60;;;78.47;;
20067;SDS011;10194;50.824;7.134;2023-03-14T01:41:00;137.67;;;76.27;;
20067;SDS011;10194;50.824;7.134;2023-03-14T01:43:27;145.83;;;81.13;;
20067;SDS011;10194;50.824;7.134;2023-03-14T01:48:33;139.53;;;83.23;;
20067;SDS011;10194;50.824;7.134;2023-03-14T01:51:05;141.57;;;83.57;;
20067;SDS011;10194;50.824;7.134;2023-03-14T01:53:35;143.17;;;85.97;;
20067;SDS011;10194;50.824;7.134;2023-03-14T01:56:02;147.30;;;92.30;;
20067;SDS011;10194;50.824;7.134;2023-03-14T01:58:28;145.83;;;91.63;;
20067;SDS011;10194;50.824;7.134;2023-03-14T02:00:59;145.53;;;93.10;;
20067;SDS011;10194;50.824;7.134;2023-03-14T02:03:27;145.50;;;92.43;;
20067;SDS011;10194;50.824;7.134;2023-03-14T02:05:56;151.07;;;92.73;;
20067;SDS011;10194;50.824;7.134;2023-03-14T02:08:30;147.37;;;97.30;;
20067;SDS011;10194;50.824;7.134;2023-03-14T02:10:56;149.20;;;104.70;;
20067;SDS011;10194;50.824;7.134;2023-03-14T02:13:22;155.70;;;119.50;;
20067;SDS011;10194;50.824;7.134;2023-03-14T02:15:48;161.20;;;129.37;;
20067;SDS011;10194;50.824;7.134;2023-03-14T02:18:14;155.27;;;123.30;;
20067;SDS011;10194;50.824;7.134;2023-03-14T02:20:46;155.97;;;126.80;;
20067;SDS011;10194;50.824;7.134;2023-03-14T02:23:40;164.87;;;141.63;;
20067;SDS011;10194;50.824;7.134;2023-03-14T02:26:38;174.97;;;155.87;;
20067;SDS011;10194;50.824;7.134;2023-03-14T02:29:30;187.27;;;167.73;;
20067;SDS011;10194;50.824;7.134;2023-03-14T02:31:59;199.20;;;178.80;;
20067;SDS011;10194;50.824;7.134;2023-03-14T02:34:24;212.87;;;191.87;;
20067;SDS011;10194;50.824;7.134;2023-03-14T02:36:51;205.43;;;184.90;;
20067;SDS011;10194;50.824;7.134;2023-03-14T02:39:20;212.27;;;191.43;;
20067;SDS011;10194;50.824;7.134;2023-03-14T02:41:53;220.37;;;198.97;;
20067;SDS011;10194;50.824;7.134;2023-03-14T02:44:18;221.43;;;199.80;;
20067;SDS011;10194;50.824;7.134;2023-03-14T02:46:44;211.83;;;190.90;;
20067;SDS011;10194;50.824;7.134;2023-03-14T02:49:10;211.17;;;190.07;;
20067;SDS011;10194;50.824;7.134;2023-03-14T02:51:39;211.30;;;190.00;;
20067;SDS011;10194;50.824;7.134;2023-03-14T02:54:07;203.30;;;181.93;;
20067;SDS011;10194;50.824;7.134;2023-03-14T02:56:33;201.27;;;180.00;;
20067;SDS011;10194;50.824;7.134;2023-03-14T02:58:58;200.00;;;178.57;;
20067;SDS011;10194;50.824;7.134;2023-03-14T03:01:27;196.37;;;175.27;;
20067;SDS011;10194;50.824;7.134;2023-03-14T03:03:53;200.20;;;178.67;;
20067;SDS011;10194;50.824;7.134;2023-03-14T03:06:19;195.80;;;172.67;;
20067;SDS011;10194;50.824;7.134;2023-03-14T03:08:45;191.77;;;168.97;;
20067;SDS011;10194;50.824;7.134;2023-03-14T03:11:10;190.87;;;167.27;;
20067;SDS011;10194;50.824;7.134;2023-03-14T03:13:36;194.10;;;168.47;;
20067;SDS011;10194;50.824;7.134;2023-03-14T03:16:02;195.17;;;165.47;;
20067;SDS011;10194;50.824;7.134;2023-03-14T03:18:28;195.10;;;166.30;;
20067;SDS011;10194;50.824;7.134;2023-03-14T03:20:54;190.70;;;167.47;;
20067;SDS011;10194;50.824;7.134;2023-03-14T03:23:20;197.40;;;174.80;;
20067;SDS011;10194;50.824;7.134;2023-03-14T03:25:49;198.00;;;176.13;;
20067;SDS011;10194;50.824;7.134;2023-03-14T03:28:16;203.23;;;181.30;;
20067;SDS011;10194;50.824;7.134;2023-03-14T03:30:43;207.47;;;185.60;;
20067;SDS011;10194;50.824;7.134;2023-03-14T03:33:09;205.80;;;184.03;;
20067;SDS011;10194;50.824;7.134;2023-03-14T03:35:45;212.37;;;189.87;;
20067;SDS011;10194;50.824;7.134;2023-03-14T03:38:14;206.33;;;182.43;;
20067;SDS011;10194;50.824;7.134;2023-03-14T03:40:40;204.17;;;181.97;;
20067;SDS011;10194;50.824;7.134;2023-03-14T03:43:06;212.10;;;190.33;;
20067;SDS011;10194;50.824;7.134;2023-03-14T03:45:32;214.63;;;192.30;;
20067;SDS011;10194;50.824;7.134;2023-03-14T03:47:58;221.90;;;199.23;;
20067;SDS011;10194;50.824;7.134;2023-03-14T03:50:23;216.57;;;194.63;;
20067;SDS011;10194;50.824;7.134;2023-03-14T03:52:49;217.03;;;195.07;;
20067;SDS011;10194;50.824;7.134;2023-03-14T03:55:15;214.47;;;193.07;;
20067;SDS011;10194;50.824;7.134;2023-03-14T03:57:41;219.27;;;197.17;;
20067;SDS011;10194;50.824;7.134;2023-03-14T04:00:07;219.33;;;197.70;;
20067;SDS011;10194;50.824;7.134;2023-03-14T04:02:37;223.23;;;201.13;;
20067;SDS011;10194;50.824;7.134;2023-03-14T04:05:02;215.50;;;194.00;;
20067;SDS011;10194;50.824;7.134;2023-03-14T04:07:30;210.97;;;190.07;;
20067;SDS011;10194;50.824;7.134;2023-03-14T04:09:57;210.63;;;189.13;;
20067;SDS011;10194;50.824;7.134;2023-03-14T04:12:23;203.83;;;183.07;;
20067;SDS011;10194;50.824;7.134;2023-03-14T04:14:48;198.57;;;177.83;;
20067;SDS011;10194;50.824;7.134;2023-03-14T04:17:14;199.33;;;178.83;;
20067;SDS011;10194;50.824;7.134;2023-03-14T04:19:40;198.10;;;177.47;;
20067;SDS011;10194;50.824;7.134;2023-03-14T04:22:07;198.33;;;177.77;;
20067;SDS011;10194;50.824;7.134;2023-03-14T04:24:34;197.10;;;176.73;;
20067;SDS011;10194;50.824;7.134;2023-03-14T04:26:59;196.77;;;176.57;;
20067;SDS011;10194;50.824;7.134;2023-03-14T04:29:25;193.90;;;173.50;;
20067;SDS011;10194;50.824;7.134;2023-03-14T04:31:51;185.87;;;166.07;;
20067;SDS011;10194;50.824;7.134;2023-03-14T04:34:17;189.13;;;168.93;;
20067;SDS011;10194;50.824;7.134;2023-03-14T04:36:42;188.93;;;169.17;;
20067;SDS011;10194;50.824;7.134;2023-03-14T04:39:08;179.47;;;160.00;;
20067;SDS011;10194;50.824;7.134;2023-03-14T04:41:34;179.97;;;160.33;;
20067;SDS011;10194;50.824;7.134;2023-03-14T04:44:00;187.30;;;167.53;;
20067;SDS011;10194;50.824;7.134;2023-03-14T04:46:25;188.27;;;168.37;;
20067;SDS011;10194;50.824;7.134;2023-03-14T04:48:51;180.60;;;161.30;;
20067;SDS011;10194;50.824;7.134;2023-03-14T04:51:17;178.23;;;158.73;;
20067;SDS011;10194;50.824;7.134;2023-03-14T04:53:43;173.60;;;152.37;;
20067;SDS011;10194;50.824;7.134;2023-03-14T04:56:08;170.47;;;151.23;;
20067;SDS011;10194;50.824;7.134;2023-03-14T04:58:34;171.90;;;151.33;;
20067;SDS011;10194;50.824;7.134;2023-03-14T05:01:03;171.60;;;152.90;;
20067;SDS011;10194;50.824;7.134;2023-03-14T05:03:33;167.87;;;146.07;;
20067;SDS011;10194;50.824;7.134;2023-03-14T05:06:01;168.87;;;149.40;;
20067;SDS011;10194;50.824;7.134;2023-03-14T05:08:26;182.10;;;162.27;;
20067;SDS011;10194;50.824;7.134;2023-03-14T05:10:53;185.33;;;165.07;;
20067;SDS011;10194;50.824;7.134;2023-03-14T05:13:22;165.13;;;144.33;;
20067;SDS011;10194;50.824;7.134;2023-03-14T05:15:49;170.60;;;151.47;;
20067;SDS011;10194;50.824;7.134;2023-03-14T05:18:20;170.10;;;150.63;;
20067;SDS011;10194;50.824;7.134;2023-03-14T05:20:46;174.43;;;155.10;;
20067;SDS011;10194;50.824;7.134;2023-03-14T05:23:11;172.43;;;152.70;;
20067;SDS011;10194;50.824;7.134;2023-03-14T05:25:37;170.57;;;150.97;;
20067;SDS011;10194;50.824;7.134;2023-03-14T05:28:03;166.10;;;146.87;;
20067;SDS011;10194;50.824;7.134;2023-03-14T05:30:29;173.73;;;154.73;;
20067;SDS011;10194;50.824;7.134;2023-03-14T05:32:55;174.03;;;155.10;;
20067;SDS011;10194;50.824;7.134;2023-03-14T05:35:21;168.43;;;148.60;;
20067;SDS011;10194;50.824;7.134;2023-03-14T05:37:47;162.50;;;141.17;;
20067;SDS011;10194;50.824;7.134;2023-03-14T05:40:13;169.30;;;147.47;;
20067;SDS011;10194;50.824;7.134;2023-03-14T05:42:39;176.60;;;157.60;;
20067;SDS011;10194;50.824;7.134;2023-03-14T05:45:05;176.23;;;157.23;;
20067;SDS011;10194;50.824;7.134;2023-03-14T05:47:31;182.17;;;162.87;;
20067;SDS011;10194;50.824;7.134;2023-03-14T05:49:57;178.47;;;159.33;;
20067;SDS011;10194;50.824;7.134;2023-03-14T05:52:23;190.40;;;170.50;;
20067;SDS011;10194;50.824;7.134;2023-03-14T05:54:48;179.83;;;160.23;;
20067;SDS011;10194;50.824;7.134;2023-03-14T05:57:14;175.23;;;156.10;;
20067;SDS011;10194;50.824;7.134;2023-03-14T05:59:40;176.57;;;157.60;;
20067;SDS011;10194;50.824;7.134;2023-03-14T06:02:05;177.00;;;157.60;;
20067;SDS011;10194;50.824;7.134;2023-03-14T06:04:31;170.17;;;149.90;;
20067;SDS011;10194;50.824;7.134;2023-03-14T06:06:57;172.83;;;154.03;;
20067;SDS011;10194;50.824;7.134;2023-03-14T06:09:23;197.00;;;176.80;;
20067;SDS011;10194;50.824;7.134;2023-03-14T06:11:49;187.97;;;168.47;;
20067;SDS011;10194;50.824;7.134;2023-03-14T06:14:15;191.13;;;171.33;;
20067;SDS011;10194;50.824;7.134;2023-03-14T06:16:40;186.57;;;167.00;;
20067;SDS011;10194;50.824;7.134;2023-03-14T06:19:06;179.00;;;160.03;;
20067;SDS011;10194;50.824;7.134;2023-03-14T06:21:32;176.47;;;157.53;;
20067;SDS011;10194;50.824;7.134;2023-03-14T06:23:58;176.77;;;157.70;;
20067;SDS011;10194;50.824;7.134;2023-03-14T06:26:23;185.83;;;166.40;;
20067;SDS011;10194;50.824;7.134;2023-03-14T06:28:49;181.37;;;161.97;;
20067;SDS011;10194;50.824;7.134;2023-03-14T06:31:16;175.77;;;156.97;;
20067;SDS011;10194;50.824;7.134;2023-03-14T06:33:42;176.37;;;157.40;;
20067;SDS011;10194;50.824;7.134;2023-03-14T06:36:08;182.30;;;162.63;;
20067;SDS011;10194;50.824;7.134;2023-03-14T06:38:34;174.53;;;155.33;;
20067;SDS011;10194;50.824;7.134;2023-03-14T06:41:06;177.83;;;152.97;;
20067;SDS011;10194;50.824;7.134;2023-03-14T06:43:32;172.10;;;153.43;;
20067;SDS011;10194;50.824;7.134;2023-03-14T06:45:58;174.33;;;155.27;;
20067;SDS011;10194;50.824;7.134;2023-03-14T06:48:24;178.03;;;158.83;;
20067;SDS011;10194;50.824;7.134;2023-03-14T06:50:50;178.77;;;159.50;;
20067;SDS011;10194;50.824;7.134;2023-03-14T06:53:15;174.57;;;155.57;;
20067;SDS011;10194;50.824;7.134;2023-03-14T06:55:41;170.63;;;150.13;;
20067;SDS011;10194;50.824;7.134;2023-03-14T06:58:08;170.33;;;145.73;;
20067;SDS011;10194;50.824;7.134;2023-03-14T07:00:34;165.80;;;142.00;;
20067;SDS011;10194;50.824;7.134;2023-03-14T07:03:00;160.70;;;134.37;;
20067;SDS011;10194;50.824;7.134;2023-03-14T07:05:26;168.30;;;141.17;;
20067;SDS011;10194;50.824;7.134;2023-03-14T07:07:51;162.47;;;138.17;;
20067;SDS011;10194;50.824;7.134;2023-03-14T07:10:17;160.63;;;128.53;;
20067;SDS011;10194;50.824;7.134;2023-03-14T07:12:43;160.10;;;128.63;;
20067;SDS011;10194;50.824;7.134;2023-03-14T07:15:09;160.27;;;129.80;;
20067;SDS011;10194;50.824;7.134;2023-03-14T07:17:35;158.97;;;127.20;;
20067;SDS011;10194;50.824;7.134;2023-03-14T07:20:01;158.50;;;124.33;;
20067;SDS011;10194;50.824;7.134;2023-03-14T07:22:29;159.13;;;127.20;;
20067;SDS011;10194;50.824;7.134;2023-03-14T07:24:55;156.50;;;126.27;;
20067;SDS011;10194;50.824;7.134;2023-03-14T07:27:20;152.27;;;114.33;;
20067;SDS011;10194;50.824;7.134;2023-03-14T07:29:46;146.97;;;102.97;;
20067;SDS011;10194;50.824;7.134;2023-03-14T07:32:12;134.23;;;79.37;;
20067;SDS011;10194;50.824;7.134;2023-03-14T07:34:40;133.87;;;73.00;;
20067;SDS011;10194;50.824;7.134;2023-03-14T07:37:06;135.87;;;72.80;;
20067;SDS011;10194;50.824;7.134;2023-03-14T07:39:32;133.70;;;74.03;;
20067;SDS011;10194;50.824;7.134;2023-03-14T07:41:59;132.80;;;72.87;;
20067;SDS011;10194;50.824;7.134;2023-03-14T07:44:25;137.80;;;77.07;;
20067;SDS011;10194;50.824;7.134;2023-03-14T07:46:51;134.63;;;78.03;;
20067;SDS011;10194;50.824;7.134;2023-03-14T07:49:17;137.53;;;81.50;;
20067;SDS011;10194;50.824;7.134;2023-03-14T07:51:43;137.53;;;81.77;;
20067;SDS011;10194;50.824;7.134;2023-03-14T07:54:09;138.00;;;83.93;;
20067;SDS011;10194;50.824;7.134;2023-03-14T07:56:35;137.40;;;80.97;;
20067;SDS011;10194;50.824;7.134;2023-03-14T07:59:01;138.77;;;83.00;;
20067;SDS011;10194;50.824;7.134;2023-03-14T08:01:28;140.60;;;82.17;;
20067;SDS011;10194;50.824;7.134;2023-03-14T08:03:54;135.67;;;79.43;;
20067;SDS011;10194;50.824;7.134;2023-03-14T08:06:19;141.97;;;79.60;;
20067;SDS011;10194;50.824;7.134;2023-03-14T08:08:45;136.87;;;76.40;;
20067;SDS011;10194;50.824;7.134;2023-03-14T08:11:11;134.17;;;73.73;;
20067;SDS011;10194;50.824;7.134;2023-03-14T08:13:37;130.77;;;68.70;;
20067;SDS011;10194;50.824;7.134;2023-03-14T08:16:04;136.27;;;71.97;;
20067;SDS011;10194;50.824;7.134;2023-03-14T08:18:30;133.97;;;70.40;;
20067;SDS011;10194;50.824;7.134;2023-03-14T08:20:56;131.00;;;69.90;;
20067;SDS011;10194;50.824;7.134;2023-03-14T08:23:22;132.37;;;70.77;;
20067;SDS011;10194;50.824;7.134;2023-03-14T08:25:49;133.37;;;71.30;;
20067;SDS011;10194;50.824;7.134;2023-03-14T08:28:16;132.97;;;70.03;;
20067;SDS011;10194;50.824;7.134;2023-03-14T08:30:42;132.80;;;71.07;;
20067;SDS011;10194;50.824;7.134;2023-03-14T08:33:08;132.33;;;70.50;;
20067;SDS011;10194;50.824;7.134;2023-03-14T08:35:34;132.20;;;71.03;;
20067;SDS011;10194;50.824;7.134;2023-03-14T08:37:59;130.70;;;69.70;;
20067;SDS011;10194;50.824;7.134;2023-03-14T08:40:26;132.83;;;71.63;;
20067;SDS011;10194;50.824;7.134;2023-03-14T08:42:52;136.13;;;74.50;;
20067;SDS011;10194;50.824;7.134;2023-03-14T08:45:17;134.90;;;72.90;;
20067;SDS011;10194;50.824;7.134;2023-03-14T08:47:44;136.27;;;74.53;;
20067;SDS011;10194;50.824;7.134;2023-03-14T08:50:10;137.83;;;75.83;;
20067;SDS011;10194;50.824;7.134;2023-03-14T08:52:37;137.63;;;74.43;;
20067;SDS011;10194;50.824;7.134;2023-03-14T08:55:06;133.07;;;72.57;;
20067;SDS011;10194;50.824;7.134;2023-03-14T08:57:33;140.77;;;75.57;;
20067;SDS011;10194;50.824;7.134;2023-03-14T08:59:59;135.83;;;75.80;;
20067;SDS011;10194;50.824;7.134;2023-03-14T09:02:25;141.20;;;76.13;;
20067;SDS011;10194;50.824;7.134;2023-03-14T09:04:51;134.63;;;76.53;;
20067;SDS011;10194;50.824;7.134;2023-03-14T09:07:18;136.53;;;75.83;;
20067;SDS011;10194;50.824;7.134;2023-03-14T09:09:44;136.70;;;76.20;;
20067;SDS011;10194;50.824;7.134;2023-03-14T09:12:10;133.80;;;73.07;;
20067;SDS011;10194;50.824;7.134;2023-03-14T09:14:36;133.70;;;74.53;;
20067;SDS011;10194;50.824;7.134;2023-03-14T09:17:03;139.47;;;76.87;;
20067;SDS011;10194;50.824;7.134;2023-03-14T09:19:29;139.43;;;79.13;;
20067;SDS011;10194;50.824;7.134;2023-03-14T09:21:55;141.33;;;85.40;;
20067;SDS011;10194;50.824;7.134;2023-03-14T09:24:21;145.03;;;84.87;;
20067;SDS011;10194;50.824;7.134;2023-03-14T09:26:46;138.17;;;83.83;;
20067;SDS011;10194;50.824;7.134;2023-03-14T09:29:12;143.53;;;85.73;;
20067;SDS011;10194;50.824;7.134;2023-03-14T09:31:38;139.03;;;83.00;;
20067;SDS011;10194;50.824;7.134;2023-03-14T09:34:03;136.20;;;68.20;;
20067;SDS011;10194;50.824;7.134;2023-03-14T09:36:29;144.40;;;70.60;;
20067;SDS011;10194;50.824;7.134;2023-03-14T09:38:55;132.67;;;72.77;;
20067;SDS011;10194;50.824;7.134;2023-03-14T09:41:25;138.40;;;77.10;;
20067;SDS011;10194;50.824;7.134;2023-03-14T09:44:05;136.80;;;76.27;;
20067;SDS011;10194;50.824;7.134;2023-03-14T09:46:55;131.97;;;71.87;;
20067;SDS011;10194;50.824;7.134;2023-03-14T09:49:31;134.93;;;72.07;;
20067;SDS011;10194;50.824;7.134;2023-03-14T09:52:11;139.50;;;73.10;;
20067;SDS011;10194;50.824;7.134;2023-03-14T09:54:51;133.17;;;71.03;;
20067;SDS011;10194;50.824;7.134;2023-03-14T09:57:22;129.27;;;68.67;;
20067;SDS011;10194;50.824;7.134;2023-03-14T10:00:15;137.83;;;74.03;;
20067;SDS011;10194;50.824;7.134;2023-03-14T10:02:48;137.87;;;87.57;;
20067;SDS011;10194;50.824;7.134;2023-03-14T10:05:24;149.63;;;106.20;;
20067;SDS011;10194;50.824;7.134;2023-03-14T10:07:52;158.43;;;125.83;;
20067;SDS011;10194;50.824;7.134;2023-03-14T10:10:20;158.20;;;134.63;;
20067;SDS011;10194;50.824;7.134;2023-03-14T10:12:59;175.13;;;156.17;;
20067;SDS011;10194;50.824;7.134;2023-03-14T10:15:35;188.07;;;168.57;;
20067;SDS011;10194;50.824;7.134;2023-03-14T10:18:03;203.20;;;182.50;;
20067;SDS011;10194;50.824;7.134;2023-03-14T10:20:38;200.77;;;180.30;;
20067;SDS011;10194;50.824;7.134;2023-03-14T10:25:40;199.07;;;178.77;;
20067;SDS011;10194;50.824;7.134;2023-03-14T10:28:23;201.73;;;181.10;;
20067;SDS011;10194;50.824;7.134;2023-03-14T10:31:14;198.67;;;178.00;;
20067;SDS011;10194;50.824;7.134;2023-03-14T10:33:40;200.10;;;179.10;;
20067;SDS011;10194;50.824;7.134;2023-03-14T10:36:40;198.33;;;177.53;;
20067;SDS011;10194;50.824;7.134;2023-03-14T10:42:16;189.50;;;160.03;;
20067;SDS011;10194;50.824;7.134;2023-03-14T10:44:51;188.33;;;163.73;;
20067;SDS011;10194;50.824;7.134;2023-03-14T10:47:23;191.80;;;169.60;;
20067;SDS011;10194;50.824;7.134;2023-03-14T10:49:53;190.17;;;166.23;;
20067;SDS011;10194;50.824;7.134;2023-03-14T10:52:21;187.87;;;162.80;;
20067;SDS011;10194;50.824;7.134;2023-03-14T10:55:03;190.63;;;164.17;;
20067;SDS011;10194;50.824;7.134;2023-03-14T10:57:39;191.17;;;164.57;;
20067;SDS011;10194;50.824;7.134;2023-03-14T11:00:14;190.87;;;166.47;;
20067;SDS011;10194;50.824;7.134;2023-03-14T11:05:46;192.97;;;159.53;;
20067;SDS011;10194;50.824;7.134;2023-03-14T11:16:24;190.67;;;153.27;;
20067;SDS011;10194;50.824;7.134;2023-03-14T11:19:03;186.57;;;151.17;;
20067;SDS011;10194;50.824;7.134;2023-03-14T11:24:27;185.67;;;148.33;;
20067;SDS011;10194;50.824;7.134;2023-03-14T11:30:05;187.93;;;145.43;;
20067;SDS011;10194;50.824;7.134;2023-03-14T11:38:41;186.73;;;156.27;;
20067;SDS011;10194;50.824;7.134;2023-03-14T11:41:30;191.20;;;163.53;;
20067;SDS011;10194;50.824;7.134;2023-03-14T11:44:31;187.63;;;151.90;;
20067;SDS011;10194;50.824;7.134;2023-03-14T11:47:01;190.53;;;159.53;;
20067;SDS011;10194;50.824;7.134;2023-03-14T11:53:04;191.53;;;163.70;;
20067;SDS011;10194;50.824;7.134;2023-03-14T11:55:40;209.23;;;187.87;;
20067;SDS011;10194;50.824;7.134;2023-03-14T11:58:13;223.53;;;201.50;;
20067;SDS011;10194;50.824;7.134;2023-03-14T12:00:44;231.37;;;208.47;;
20067;SDS011;10194;50.824;7.134;2023-03-14T12:09:12;181.13;;;144.07;;
20067;SDS011;10194;50.824;7.134;2023-03-14T12:11:40;181.80;;;138.00;;
20067;SDS011;10194;50.824;7.134;2023-03-14T12:17:40;180.13;;;134.13;;
20067;SDS011;10194;50.824;7.134;2023-03-14T12:22:51;181.70;;;136.23;;
20067;SDS011;10194;50.824;7.134;2023-03-14T12:25:18;183.10;;;136.83;;
20067;SDS011;10194;50.824;7.134;2023-03-14T12:35:59;186.83;;;135.37;;
20067;SDS011;10194;50.824;7.134;2023-03-14T12:43:45;185.60;;;135.33;;
20067;SDS011;10194;50.824;7.134;2023-03-14T12:48:50;184.10;;;138.57;;
20067;SDS011;10194;50.824;7.134;2023-03-14T12:51:34;185.83;;;135.03;;
20067;SDS011;10194;50.824;7.134;2023-03-14T12:54:12;186.63;;;139.90;;
20067;SDS011;10194;50.824;7.134;2023-03-14T13:04:29;181.37;;;138.83;;
20067;SDS011;10194;50.824;7.134;2023-03-14T13:10:16;189.90;;;140.73;;
20067;SDS011;10194;50.824;7.134;2023-03-14T13:12:57;185.37;;;134.43;;
20067;SDS011;10194;50.824;7.134;2023-03-14T13:15:38;182.13;;;134.97;;
20067;SDS011;10194;50.824;7.134;2023-03-14T13:18:10;185.27;;;133.87;;
20067;SDS011;10194;50.824;7.134;2023-03-14T13:23:56;187.70;;;130.87;;
20067;SDS011;10194;50.824;7.134;2023-03-14T13:26:40;188.23;;;133.93;;
20067;SDS011;10194;50.824;7.134;2023-03-14T13:29:19;186.20;;;134.90;;
20067;SDS011;10194;50.824;7.134;2023-03-14T13:31:52;185.37;;;134.27;;
20067;SDS011;10194;50.824;7.134;2023-03-14T13:34:24;186.03;;;132.57;;
20067;SDS011;10194;50.824;7.134;2023-03-14T13:36:58;184.10;;;135.67;;
20067;SDS011;10194;50.824;7.134;2023-03-14T13:39:25;185.80;;;136.50;;
20067;SDS011;10194;50.824;7.134;2023-03-14T13:41:54;190.33;;;135.03;;
20067;SDS011;10194;50.824;7.134;2023-03-14T13:44:31;190.23;;;136.93;;
20067;SDS011;10194;50.824;7.134;2023-03-14T13:47:02;187.70;;;136.80;;
20067;SDS011;10194;50.824;7.134;2023-03-14T13:49:31;189.60;;;137.90;;
20067;SDS011;10194;50.824;7.134;2023-03-14T13:52:00;186.57;;;139.20;;
20067;SDS011;10194;50.824;7.134;2023-03-14T13:54:27;191.37;;;144.73;;
20067;SDS011;10194;50.824;7.134;2023-03-14T13:57:00;189.37;;;155.43;;
20067;SDS011;10194;50.824;7.134;2023-03-14T13:59:28;198.27;;;153.70;;
20067;SDS011;10194;50.824;7.134;2023-03-14T14:02:00;187.67;;;151.20;;
20067;SDS011;10194;50.824;7.134;2023-03-14T14:04:35;188.77;;;150.13;;
20067;SDS011;10194;50.824;7.134;2023-03-14T14:07:06;191.10;;;144.50;;
20067;SDS011;10194;50.824;7.134;2023-03-14T14:09:41;192.40;;;138.53;;
20067;SDS011;10194;50.824;7.134;2023-03-14T14:12:15;185.13;;;136.87;;
20067;SDS011;10194;50.824;7.134;2023-03-14T14:17:53;180.20;;;135.50;;
20067;SDS011;10194;50.824;7.134;2023-03-14T14:20:33;186.20;;;139.07;;
20067;SDS011;10194;50.824;7.134;2023-03-14T14:23:05;186.23;;;136.20;;
20067;SDS011;10194;50.824;7.134;2023-03-14T14:25:45;183.07;;;138.67;;
20067;SDS011;10194;50.824;7.134;2023-03-14T14:28:24;186.50;;;138.33;;
20067;SDS011;10194;50.824;7.134;2023-03-14T14:31:00;189.70;;;141.17;;
20067;SDS011;10194;50.824;7.134;2023-03-14T14:33:38;194.47;;;144.57;;
20067;SDS011;10194;50.824;7.134;2023-03-14T14:36:12;188.20;;;141.33;;
20067;SDS011;10194;50.824;7.134;2023-03-14T14:38:51;192.87;;;138.40;;
20067;SDS011;10194;50.824;7.134;2023-03-14T14:41:21;189.93;;;139.97;;
20067;SDS011;10194;50.824;7.134;2023-03-14T14:43:55;193.33;;;139.33;;
20067;SDS011;10194;50.824;7.134;2023-03-14T14:46:22;199.03;;;140.37;;
20067;SDS011;10194;50.824;7.134;2023-03-14T14:49:05;189.87;;;134.77;;
20067;SDS011;10194;50.824;7.134;2023-03-14T14:52:10;194.97;;;141.07;;
20067;SDS011;10194;50.824;7.134;2023-03-14T14:54:33;196.67;;;145.10;;
20067;SDS011;10194;50.824;7.134;2023-03-14T14:57:04;188.13;;;140.33;;
20067;SDS011;10194;50.824;7.134;2023-03-14T14:59:41;206.77;;;147.90;;
20067;SDS011;10194;50.824;7.134;2023-03-14T15:05:42;194.43;;;142.23;;
20067;SDS011;10194;50.824;7.134;2023-03-14T15:08:07;195.13;;;137.97;;
20067;SDS011;10194;50.824;7.134;2023-03-14T15:10:35;198.20;;;146.90;;
20067;SDS011;10194;50.824;7.134;2023-03-14T15:13:00;195.10;;;142.13;;
20067;SDS011;10194;50.824;7.134;2023-03-14T15:15:26;193.37;;;133.63;;
20067;SDS011;10194;50.824;7.134;2023-03-14T15:17:52;189.63;;;136.27;;
20067;SDS011;10194;50.824;7.134;2023-03-14T15:20:18;197.27;;;137.57;;
20067;SDS011;10194;50.824;7.134;2023-03-14T15:22:44;192.13;;;138.03;;
20067;SDS011;10194;50.824;7.134;2023-03-14T15:25:11;194.07;;;137.70;;
20067;SDS011;10194;50.824;7.134;2023-03-14T15:27:37;202.73;;;142.43;;
20067;SDS011;10194;50.824;7.134;2023-03-14T15:30:13;195.50;;;139.90;;
20067;SDS011;10194;50.824;7.134;2023-03-14T15:32:40;195.33;;;145.20;;
20067;SDS011;10194;50.824;7.134;2023-03-14T15:35:07;199.03;;;139.60;;